createdAt,value
2018-05-24T00:00:45.600Z,53.41
2018-05-24T00:03:13.143Z,53.19
2018-05-24T00:05:40.659Z,53.04
2018-05-24T00:08:08.192Z,53.48
2018-05-24T00:10:35.816Z,53.23
2018-05-24T00:13:03.339Z,52.67
2018-05-24T00:15:30.872Z,52.18
2018-05-24T00:17:58.496Z,53.56
2018-05-24T00:20:26.040Z,53.66
2018-05-24T00:22:53.616Z,53.78
2018-05-24T00:25:21.142Z,53.06
2018-05-24T00:27:48.674Z,54.06
2018-05-24T00:30:16.297Z,53.47
2018-05-24T00:32:43.860Z,53.75
2018-05-24T00:35:11.419Z,54.06
2018-05-24T00:37:38.942Z,54.22
2018-05-24T00:40:06.537Z,53.27
2018-05-24T00:42:34.060Z,52.82
2018-05-24T00:45:01.660Z,52.38
2018-05-24T00:47:29.188Z,53.47
2018-05-24T00:49:56.772Z,54.24
2018-05-24T00:52:24.301Z,52.91
2018-05-24T00:54:51.891Z,53.14
2018-05-24T00:57:19.419Z,53.81
2018-05-24T00:59:46.980Z,54.34
2018-05-24T01:02:14.576Z,52.86
2018-05-24T01:04:42.136Z,54.58
2018-05-24T01:07:09.661Z,54.58
2018-05-24T01:09:37.216Z,54.26
2018-05-24T01:12:04.890Z,54.69
2018-05-24T01:14:32.495Z,54.38
2018-05-24T01:17:00.036Z,54.76
2018-05-24T01:19:27.568Z,55.02
2018-05-24T01:21:55.085Z,54.74
2018-05-24T01:24:22.615Z,54.35
2018-05-24T01:26:50.157Z,55.19
2018-05-24T01:29:17.688Z,55.17
2018-05-24T01:31:45.212Z,54.42
2018-05-24T01:34:12.866Z,54.82
2018-05-24T01:36:52.176Z,55.10
2018-05-24T01:39:19.725Z,55.86
2018-05-24T01:41:47.244Z,55.12
2018-05-24T01:44:14.792Z,55.81
2018-05-24T01:46:42.312Z,55.27
2018-05-24T01:49:09.844Z,56.12
2018-05-24T01:51:37.433Z,55.71
2018-05-24T01:54:04.991Z,55.03
2018-05-24T01:56:32.504Z,56.27
2018-05-24T01:59:00.110Z,55.23
2018-05-24T02:01:27.699Z,56.40
2018-05-24T02:03:55.275Z,56.45
2018-05-24T02:06:22.884Z,56.69
2018-05-24T02:08:50.410Z,55.80
2018-05-24T02:11:18.032Z,56.85
2018-05-24T02:13:45.560Z,55.68
2018-05-24T02:16:13.085Z,57.14
2018-05-24T02:18:40.611Z,57.19
2018-05-24T02:21:08.151Z,57.16
2018-05-24T02:23:35.683Z,57.20
2018-05-24T02:26:03.227Z,58.20
2018-05-24T02:28:30.849Z,55.42
2018-05-24T02:30:58.413Z,57.93
2018-05-24T02:33:25.935Z,58.17
2018-05-24T02:35:53.600Z,58.45
2018-05-24T02:38:21.090Z,58.60
2018-05-24T02:40:48.655Z,58.83
2018-05-24T02:43:16.178Z,57.50
2018-05-24T02:45:43.768Z,58.35
2018-05-24T02:48:11.333Z,58.41
2018-05-24T02:50:38.856Z,58.93
2018-05-24T02:53:06.417Z,57.71
2018-05-24T02:55:33.950Z,59.23
2018-05-24T02:58:01.571Z,59.33
2018-05-24T03:00:29.552Z,57.69
2018-05-24T03:02:57.072Z,58.38
2018-05-24T03:05:24.593Z,57.55
2018-05-24T03:07:52.123Z,59.31
2018-05-24T03:10:19.786Z,59.93
2018-05-24T03:12:47.447Z,60.05
2018-05-24T03:15:14.969Z,59.96
2018-05-24T03:17:42.501Z,59.69
2018-05-24T03:20:10.019Z,59.87
2018-05-24T03:22:37.545Z,60.10
2018-05-24T03:25:05.213Z,60.00
2018-05-24T03:27:32.797Z,59.39
2018-05-24T03:30:00.335Z,59.78
2018-05-24T03:32:27.860Z,60.35
2018-05-24T03:34:55.493Z,58.34
2018-05-24T03:37:23.042Z,59.92
2018-05-24T03:39:51.010Z,60.46
2018-05-24T03:42:18.537Z,60.56
2018-05-24T03:44:46.140Z,60.57
2018-05-24T03:47:13.666Z,59.99
2018-05-24T03:49:41.196Z,60.85
2018-05-24T03:52:08.789Z,60.75
2018-05-24T03:54:36.344Z,60.45
2018-05-24T03:57:03.988Z,59.35
2018-05-24T04:02:54.040Z,60.66
2018-05-24T04:05:21.571Z,60.95
2018-05-24T04:07:49.199Z,60.96
2018-05-24T04:10:16.720Z,59.34
2018-05-24T04:12:44.280Z,58.61
2018-05-24T04:15:11.803Z,60.29
2018-05-24T04:17:39.340Z,60.14
2018-05-24T04:20:06.904Z,60.33
2018-05-24T04:22:34.524Z,61.21
2018-05-24T04:25:02.040Z,60.96
2018-05-24T04:27:29.612Z,61.07
2018-05-24T04:29:57.135Z,61.47
2018-05-24T04:32:24.701Z,61.13
2018-05-24T04:34:52.322Z,60.26
2018-05-24T04:37:19.936Z,60.83
2018-05-24T04:39:47.467Z,60.96
2018-05-24T04:42:15.561Z,60.66
2018-05-24T04:44:43.104Z,60.75
2018-05-24T04:47:10.632Z,60.76
2018-05-24T04:49:38.154Z,59.79
2018-05-24T04:52:05.785Z,60.75
2018-05-24T04:54:33.313Z,60.66
2018-05-24T04:57:00.845Z,60.51
2018-05-24T04:59:28.363Z,60.81
2018-05-24T05:01:55.999Z,60.96
2018-05-24T05:04:23.654Z,61.33
2018-05-24T05:06:51.179Z,61.03
2018-05-24T05:09:18.775Z,60.29
2018-05-24T05:11:46.295Z,60.76
2018-05-24T05:14:13.898Z,60.58
2018-05-24T05:16:41.421Z,60.71
2018-05-24T05:19:08.953Z,61.33
2018-05-24T05:21:36.478Z,60.10
2018-05-24T05:24:04.048Z,60.14
2018-05-24T05:26:31.701Z,60.06
2018-05-24T05:28:59.259Z,60.31
2018-05-24T05:31:26.781Z,60.47
2018-05-24T05:33:54.308Z,59.89
2018-05-24T05:36:21.934Z,60.04
2018-05-24T05:38:49.456Z,59.77
2018-05-24T05:41:17.074Z,59.35
2018-05-24T05:43:44.618Z,60.00
2018-05-24T05:46:12.176Z,59.49
2018-05-24T05:48:39.749Z,58.98
2018-05-24T05:51:07.280Z,59.18
2018-05-24T05:53:34.808Z,59.42
2018-05-24T05:56:02.337Z,59.28
2018-05-24T05:58:29.874Z,59.23
2018-05-24T06:00:57.403Z,59.37
2018-05-24T06:03:24.929Z,58.82
2018-05-24T06:05:52.555Z,58.83
2018-05-24T06:08:20.085Z,58.42
2018-05-24T06:10:47.684Z,57.28
2018-05-24T06:13:15.335Z,56.67
2018-05-24T06:15:42.863Z,56.85
2018-05-24T06:18:10.460Z,56.65
2018-05-24T06:20:38.112Z,56.43
2018-05-24T06:23:05.631Z,56.50
2018-05-24T06:25:33.177Z,57.08
2018-05-24T06:28:00.795Z,56.62
2018-05-24T06:30:28.360Z,55.92
2018-05-24T06:32:56.094Z,55.22
2018-05-24T06:35:24.165Z,55.16
2018-05-24T06:37:51.756Z,55.33
2018-05-24T06:40:19.313Z,55.25
2018-05-24T06:42:46.857Z,55.87
2018-05-24T06:45:14.399Z,55.27
2018-05-24T06:47:42.013Z,54.06
2018-05-24T06:50:09.551Z,54.22
2018-05-24T06:52:37.086Z,52.27
2018-05-24T06:55:04.600Z,53.60
2018-05-24T06:57:32.234Z,51.48
2018-05-24T06:59:59.893Z,51.23
2018-05-24T07:02:27.349Z,53.35
2018-05-24T07:04:54.879Z,49.80
2018-05-24T07:07:22.489Z,52.52
2018-05-24T07:09:50.074Z,48.05
2018-05-24T07:12:17.697Z,48.98
2018-05-24T07:14:45.224Z,47.66
2018-05-24T07:17:12.757Z,49.22
2018-05-24T07:19:40.394Z,49.65
2018-05-24T07:22:09.783Z,46.78
2018-05-24T07:24:38.264Z,46.45
2018-05-24T07:27:05.875Z,46.23
2018-05-24T07:29:33.462Z,46.91
2018-05-24T07:32:01.068Z,46.51
2018-05-24T07:34:28.693Z,47.44
2018-05-24T07:36:57.016Z,47.28
2018-05-24T07:39:24.661Z,47.27
2018-05-24T07:41:52.205Z,46.26
2018-05-24T07:44:19.767Z,45.78
2018-05-24T07:46:47.326Z,45.77
2018-05-24T07:49:17.223Z,46.11
2018-05-24T07:51:47.538Z,45.33
2018-05-24T07:54:15.064Z,45.45
2018-05-24T07:56:42.686Z,44.25
2018-05-24T07:59:10.343Z,44.09
2018-05-24T08:01:37.881Z,44.53
2018-05-24T08:04:05.414Z,46.23
2018-05-24T08:06:40.615Z,45.03
2018-05-24T08:09:08.166Z,43.73
2018-05-24T08:11:35.712Z,40.94
2018-05-24T08:14:03.285Z,41.50
2018-05-24T08:16:30.818Z,38.83
2018-05-24T08:18:58.336Z,39.91
2018-05-24T08:21:25.967Z,40.38
2018-05-24T08:23:53.526Z,35.60
2018-05-24T08:26:21.045Z,37.38
2018-05-24T08:28:48.572Z,33.92
2018-05-24T08:31:16.210Z,35.07
2018-05-24T08:33:43.731Z,33.87
2018-05-24T08:36:11.325Z,32.22
2018-05-24T08:38:38.853Z,31.00
2018-05-24T08:41:06.377Z,35.04
2018-05-24T08:43:34.012Z,32.03
2018-05-24T08:46:01.551Z,30.60
2018-05-24T08:48:29.085Z,30.60
2018-05-24T08:50:56.686Z,31.45
2018-05-24T08:53:24.268Z,33.65
2018-05-24T08:55:52.076Z,30.52
2018-05-24T08:58:19.640Z,29.70
2018-05-24T09:00:47.160Z,28.91
2018-05-24T09:03:14.690Z,29.33
2018-05-24T09:05:42.251Z,28.57
2018-05-24T09:08:09.774Z,28.70
2018-05-24T09:10:37.371Z,29.71
2018-05-24T09:13:04.931Z,29.52
2018-05-24T09:15:32.464Z,29.27
2018-05-24T09:17:59.983Z,27.33
2018-05-24T09:20:27.524Z,27.53
2018-05-24T09:22:55.062Z,30.71
2018-05-24T09:25:22.597Z,28.27
2018-05-24T09:27:50.117Z,30.39
2018-05-24T09:30:17.747Z,30.69
2018-05-24T09:32:45.309Z,29.92
2018-05-24T09:35:12.853Z,31.28
2018-05-24T09:37:40.523Z,32.75
2018-05-24T09:40:08.097Z,32.43
2018-05-24T09:42:35.650Z,34.12
2018-05-24T09:45:03.175Z,30.59
2018-05-24T09:47:30.827Z,30.57
2018-05-24T09:49:58.437Z,31.64
2018-05-24T09:52:26.119Z,32.20
2018-05-24T09:54:53.743Z,32.33
2018-05-24T09:57:21.272Z,35.33
2018-05-24T09:59:48.809Z,35.24
2018-05-24T10:02:16.335Z,35.04
2018-05-24T10:04:44.107Z,33.06
2018-05-24T10:07:11.553Z,33.28
2018-05-24T10:09:39.126Z,32.93
2018-05-24T10:12:06.660Z,32.46
2018-05-24T10:14:34.240Z,32.48
2018-05-24T10:17:01.780Z,32.44
2018-05-24T10:19:29.356Z,31.33
2018-05-24T10:21:56.887Z,31.19
2018-05-24T10:24:24.479Z,33.17
2018-05-24T10:26:52.029Z,34.66
2018-05-24T10:29:19.570Z,34.67
2018-05-24T10:31:47.149Z,35.25
2018-05-24T10:34:14.718Z,34.34
2018-05-24T10:36:42.280Z,35.89
2018-05-24T10:39:09.808Z,37.05
2018-05-24T10:41:37.397Z,36.43
2018-05-24T10:44:04.931Z,36.09
2018-05-24T10:46:32.517Z,37.09
2018-05-24T10:49:00.043Z,37.81
2018-05-24T10:51:27.567Z,37.92
2018-05-24T10:53:55.096Z,38.93
2018-05-24T10:56:22.654Z,39.80
2018-05-24T10:58:50.184Z,40.00
2018-05-24T11:01:17.779Z,37.59
2018-05-24T11:03:45.299Z,39.13
2018-05-24T11:06:12.897Z,39.22
2018-05-24T11:08:40.559Z,37.65
2018-05-24T11:11:08.113Z,39.67
2018-05-24T11:13:35.677Z,38.70
2018-05-24T11:16:03.246Z,39.65
2018-05-24T11:18:30.779Z,40.05
2018-05-24T11:20:58.310Z,40.38
2018-05-24T11:23:25.841Z,39.73
2018-05-24T11:25:53.633Z,38.86
2018-05-24T11:28:21.165Z,38.87
2018-05-24T11:30:48.715Z,39.74
2018-05-24T11:33:16.365Z,40.04
2018-05-24T11:35:44.029Z,40.57
2018-05-24T11:38:11.584Z,40.08
2018-05-24T11:40:39.288Z,39.81
2018-05-24T11:43:06.914Z,40.33
2018-05-24T11:45:34.400Z,39.30
2018-05-24T11:48:01.954Z,40.04
2018-05-24T11:50:29.483Z,39.81
2018-05-24T11:52:57.017Z,40.30
2018-05-24T11:55:24.532Z,40.30
2018-05-24T11:57:52.216Z,39.47
2018-05-24T12:00:19.752Z,38.89
2018-05-24T12:02:47.308Z,39.31
2018-05-24T12:05:14.874Z,39.37
2018-05-24T12:07:42.691Z,39.07
2018-05-24T12:10:10.409Z,39.84
2018-05-24T12:12:38.067Z,39.02
2018-05-24T12:15:05.704Z,39.31
2018-05-24T12:17:33.265Z,38.73
2018-05-24T12:20:00.792Z,37.95
2018-05-24T12:22:28.330Z,38.44
2018-05-24T12:24:55.910Z,38.30
2018-05-24T12:27:23.447Z,37.68
2018-05-24T12:29:50.980Z,37.73
2018-05-24T12:32:18.504Z,37.73
2018-05-24T12:34:46.034Z,38.81
2018-05-24T12:37:13.592Z,37.38
2018-05-24T12:39:41.125Z,37.83
2018-05-24T12:42:08.656Z,38.13
2018-05-24T12:44:36.233Z,37.46
2018-05-24T12:47:03.779Z,36.80
2018-05-24T12:49:31.386Z,37.92
2018-05-24T12:51:58.925Z,36.45
2018-05-24T12:54:26.562Z,35.49
2018-05-24T12:56:54.165Z,35.29
2018-05-24T12:59:21.751Z,35.32
2018-05-24T13:01:49.312Z,36.36
2018-05-24T13:04:16.847Z,36.60
2018-05-24T13:06:44.373Z,36.27
2018-05-24T13:09:11.920Z,36.13
2018-05-24T13:11:39.664Z,35.73
2018-05-24T13:14:07.770Z,35.63
2018-05-24T13:16:35.444Z,34.92
2018-05-24T13:19:03.077Z,35.18
2018-05-24T13:21:30.637Z,35.61
2018-05-24T13:23:58.219Z,35.87
2018-05-24T13:26:25.735Z,35.50
2018-05-24T13:28:53.252Z,35.54
2018-05-24T13:31:20.785Z,35.66
2018-05-24T13:33:48.317Z,36.17
2018-05-24T13:36:15.836Z,36.13
2018-05-24T13:38:43.425Z,35.85
2018-05-24T13:41:11.021Z,36.04
2018-05-24T13:43:38.558Z,35.55
2018-05-24T13:46:06.196Z,35.00
2018-05-24T13:48:33.807Z,34.92
2018-05-24T13:51:01.331Z,35.15
2018-05-24T13:53:28.855Z,35.08
2018-05-24T13:55:56.379Z,35.39
2018-05-24T13:58:23.898Z,34.94
2018-05-24T14:00:51.541Z,35.29
2018-05-24T14:03:19.096Z,34.74
2018-05-24T14:05:47.418Z,35.11
2018-05-24T14:08:15.276Z,35.24
2018-05-24T14:10:42.870Z,35.17
2018-05-24T14:13:10.429Z,34.83
2018-05-24T14:15:37.992Z,34.97
2018-05-24T14:18:05.515Z,35.12
2018-05-24T14:20:33.032Z,35.85
2018-05-24T14:23:00.667Z,35.98
2018-05-24T14:25:28.264Z,35.54
2018-05-24T14:27:55.889Z,35.12
2018-05-24T14:30:24.076Z,35.13
2018-05-24T14:32:51.598Z,35.46
2018-05-24T14:35:19.127Z,35.79
2018-05-24T14:37:46.663Z,36.11
2018-05-24T14:40:14.315Z,36.51
2018-05-24T14:42:41.866Z,36.17
2018-05-24T14:45:09.495Z,36.95
2018-05-24T14:47:37.088Z,36.72
2018-05-24T14:50:04.649Z,36.61
2018-05-24T14:52:32.177Z,36.39
2018-05-24T14:54:59.770Z,36.20
2018-05-24T14:57:27.291Z,36.99
2018-05-24T14:59:54.859Z,36.21
2018-05-24T15:02:22.446Z,36.47
2018-05-24T15:04:50.024Z,36.26
2018-05-24T15:07:17.552Z,36.80
2018-05-24T15:09:45.076Z,37.00
2018-05-24T15:12:12.628Z,36.93
2018-05-24T15:14:40.163Z,36.86
2018-05-24T15:17:07.806Z,37.19
2018-05-24T15:19:35.333Z,36.56
2018-05-24T15:22:02.848Z,36.64
2018-05-24T15:24:30.379Z,36.67
2018-05-24T15:26:57.953Z,36.58
2018-05-24T15:29:25.644Z,36.74
2018-05-24T15:31:53.273Z,36.74
2018-05-24T15:34:20.828Z,37.10
2018-05-24T15:36:48.387Z,36.69
2018-05-24T15:39:15.949Z,36.71
2018-05-24T15:41:43.475Z,36.76
2018-05-24T15:44:11.041Z,36.51
2018-05-24T15:46:38.571Z,36.37
2018-05-24T15:49:06.184Z,36.30
2018-05-24T15:51:33.753Z,36.40
2018-05-24T15:54:01.271Z,36.76
2018-05-24T15:56:28.876Z,36.89
2018-05-24T15:58:56.432Z,36.38
2018-05-24T16:01:23.992Z,36.37
2018-05-24T16:03:51.521Z,36.46
2018-05-24T16:06:19.039Z,36.08
2018-05-24T16:08:46.669Z,35.93
2018-05-24T16:11:14.208Z,35.86
2018-05-24T16:13:41.736Z,36.09
2018-05-24T16:16:09.272Z,36.36
2018-05-24T16:18:36.826Z,36.23
2018-05-24T16:21:04.471Z,36.03
2018-05-24T16:23:32.280Z,36.10
2018-05-24T16:26:01.042Z,35.91
2018-05-24T16:28:29.630Z,36.15
2018-05-24T16:30:57.265Z,35.90
2018-05-24T16:33:24.797Z,36.16
2018-05-24T16:35:52.356Z,35.81
2018-05-24T16:38:20.379Z,35.64
2018-05-24T16:40:47.919Z,35.29
2018-05-24T16:43:15.712Z,35.57
2018-05-24T16:45:43.579Z,35.63
2018-05-24T16:48:11.208Z,36.18
2018-05-24T16:50:38.741Z,36.00
2018-05-24T16:53:06.309Z,36.11
2018-05-24T16:55:33.831Z,35.88
2018-05-24T16:58:01.454Z,35.79
2018-05-24T17:00:29.020Z,35.17
2018-05-24T17:02:56.539Z,35.09
2018-05-24T17:05:24.129Z,35.41
2018-05-24T17:07:51.660Z,35.43
2018-05-24T17:10:19.255Z,35.70
2018-05-24T17:12:46.797Z,35.64
2018-05-24T17:15:14.394Z,35.98
2018-05-24T17:17:42.033Z,36.07
2018-05-24T17:20:09.599Z,35.82
2018-05-24T17:22:37.140Z,36.26
2018-05-24T17:25:05.240Z,36.12
2018-05-24T17:27:32.772Z,36.68
2018-05-24T17:30:00.311Z,36.90
2018-05-24T17:32:27.860Z,37.29
2018-05-24T17:34:55.396Z,37.46
2018-05-24T17:37:23.367Z,37.30
2018-05-24T17:39:50.998Z,37.26
2018-05-24T17:42:18.561Z,37.08
2018-05-24T17:44:46.093Z,37.48
2018-05-24T17:47:13.615Z,37.46
2018-05-24T17:49:41.236Z,37.26
2018-05-24T17:52:08.795Z,37.61
2018-05-24T17:54:36.359Z,37.71
2018-05-24T17:57:03.918Z,37.64
2018-05-24T17:59:31.444Z,37.59
2018-05-24T18:01:59.144Z,37.55
2018-05-24T18:04:26.672Z,37.55
2018-05-24T18:06:54.187Z,37.61
2018-05-24T18:09:21.815Z,37.46
2018-05-24T18:11:49.351Z,37.73
2018-05-24T18:14:16.904Z,37.49
2018-05-24T18:16:44.432Z,37.67
2018-05-24T18:19:12.169Z,37.71
2018-05-24T18:21:39.824Z,37.72
2018-05-24T18:24:07.352Z,37.88
2018-05-24T18:26:34.948Z,37.79
2018-05-24T18:29:02.483Z,38.07
2018-05-24T18:31:30.065Z,37.99
2018-05-24T18:33:57.592Z,38.16
2018-05-24T18:36:25.158Z,38.09
2018-05-24T18:38:52.718Z,37.86
2018-05-24T18:41:20.232Z,38.25
2018-05-24T18:43:47.764Z,38.30
2018-05-24T18:46:15.312Z,38.23
2018-05-24T18:48:42.845Z,38.54
2018-05-24T18:51:10.449Z,38.56
2018-05-24T18:53:37.973Z,38.69
2018-05-24T18:56:05.809Z,38.76
2018-05-24T18:58:33.433Z,38.88
2018-05-24T19:01:00.996Z,38.85
2018-05-24T19:03:28.516Z,38.93
2018-05-24T19:05:56.045Z,38.28
2018-05-24T19:08:23.671Z,38.67
2018-05-24T19:10:51.195Z,38.87
2018-05-24T19:13:18.893Z,39.12
2018-05-24T19:15:46.711Z,38.94
2018-05-24T19:18:14.319Z,38.92
2018-05-24T19:20:41.849Z,39.25
2018-05-24T19:23:09.439Z,39.39
2018-05-24T19:25:36.969Z,38.88
2018-05-24T19:28:04.564Z,39.07
2018-05-24T19:30:32.162Z,39.36
2018-05-24T19:32:59.782Z,39.84
2018-05-24T19:35:27.524Z,39.63
2018-05-24T19:37:55.118Z,39.65
2018-05-24T19:40:22.651Z,39.80
2018-05-24T19:42:50.267Z,39.21
2018-05-24T19:45:17.889Z,39.67
2018-05-24T19:47:45.419Z,39.41
2018-05-24T19:50:12.943Z,39.95
2018-05-24T19:52:40.468Z,39.76
2018-05-24T19:55:08.031Z,40.05
2018-05-24T19:57:36.360Z,40.12
2018-05-24T20:00:03.905Z,40.14
2018-05-24T20:02:31.437Z,39.76
2018-05-24T20:04:58.990Z,40.81
2018-05-24T20:07:26.651Z,40.05
2018-05-24T20:09:54.248Z,40.94
2018-05-24T20:12:21.801Z,40.59
2018-05-24T20:14:49.511Z,40.89
2018-05-24T20:17:17.088Z,41.31
2018-05-24T20:19:44.660Z,41.46
2018-05-24T20:22:12.206Z,40.94
2018-05-24T20:24:39.768Z,41.68
2018-05-24T20:27:07.360Z,41.48
2018-05-24T20:29:35.045Z,41.77
2018-05-24T20:32:02.668Z,41.50
2018-05-24T20:34:30.221Z,41.70
2018-05-24T20:36:57.775Z,42.22
2018-05-24T20:39:25.362Z,42.36
2018-05-24T20:41:52.919Z,42.08
2018-05-24T20:44:20.468Z,42.15
2018-05-24T20:46:48.029Z,42.49
2018-05-24T20:49:15.591Z,43.31
2018-05-24T20:51:43.246Z,42.74
2018-05-24T20:54:10.803Z,42.72
2018-05-24T20:56:38.359Z,43.22
2018-05-24T20:59:05.936Z,43.51
2018-05-24T21:01:33.480Z,43.05
2018-05-24T21:04:01.065Z,43.34
2018-05-24T21:06:28.730Z,42.74
2018-05-24T21:08:56.287Z,43.55
2018-05-24T21:11:23.844Z,43.84
2018-05-24T21:13:51.412Z,44.56
2018-05-24T21:16:19.012Z,44.26
2018-05-24T21:18:46.556Z,43.83
2018-05-24T21:21:14.137Z,44.63
2018-05-24T21:23:41.696Z,44.67
2018-05-24T21:26:09.255Z,44.55
2018-05-24T21:28:36.860Z,43.78
2018-05-24T21:31:04.651Z,45.01
2018-05-24T21:33:32.214Z,45.02
2018-05-24T21:35:59.777Z,44.23
2018-05-24T21:38:27.343Z,44.84
2018-05-24T21:40:54.921Z,45.19
2018-05-24T21:43:22.487Z,45.00
2018-05-24T21:45:50.063Z,45.41
2018-05-24T21:48:17.639Z,45.01
2018-05-24T21:50:45.356Z,45.44
2018-05-24T21:53:12.944Z,44.75
2018-05-24T21:55:40.510Z,45.72
2018-05-24T21:58:08.109Z,45.53
2018-05-24T22:00:35.668Z,45.61
2018-05-24T22:03:03.233Z,45.28
2018-05-24T22:05:31.658Z,45.45
2018-05-24T22:07:59.619Z,45.82
2018-05-24T22:10:27.240Z,45.16
2018-05-24T22:12:54.792Z,45.67
2018-05-24T22:15:22.365Z,45.20
2018-05-24T22:17:49.959Z,46.05
2018-05-24T22:20:17.519Z,45.66
2018-05-24T22:22:45.144Z,46.32
2018-05-24T22:25:12.721Z,46.27
2018-05-24T22:27:40.337Z,46.70
2018-05-24T22:30:08.001Z,44.91
2018-05-24T22:32:35.684Z,46.50
2018-05-24T22:35:03.338Z,46.63
2018-05-24T22:37:30.946Z,46.81
2018-05-24T22:39:58.508Z,47.33
2018-05-24T22:42:26.135Z,47.38
2018-05-24T22:44:53.688Z,46.28
2018-05-24T22:47:21.245Z,47.29
2018-05-24T22:49:48.807Z,46.14
2018-05-24T22:52:16.473Z,46.87
2018-05-24T22:54:44.029Z,47.13
2018-05-24T22:57:11.700Z,47.39
2018-05-24T22:59:39.307Z,47.47
2018-05-24T23:02:06.965Z,47.92
2018-05-24T23:04:34.529Z,46.98
2018-05-24T23:07:02.137Z,47.72
2018-05-24T23:09:29.707Z,47.79
2018-05-24T23:11:57.307Z,46.98
2018-05-24T23:14:25.335Z,47.48
2018-05-24T23:16:52.876Z,47.61
2018-05-24T23:19:20.427Z,47.85
2018-05-24T23:21:47.993Z,48.73
2018-05-24T23:24:15.719Z,47.74
2018-05-24T23:26:43.259Z,48.22
2018-05-24T23:29:10.929Z,49.19
2018-05-24T23:31:38.480Z,49.22
2018-05-24T23:34:06.116Z,47.79
2018-05-24T23:36:33.727Z,49.26
2018-05-24T23:39:01.380Z,48.72
2018-05-24T23:41:28.928Z,48.98
2018-05-24T23:43:56.569Z,49.95
2018-05-24T23:46:24.131Z,49.44
2018-05-24T23:48:51.735Z,49.83
2018-05-24T23:51:19.292Z,49.58
2018-05-24T23:53:46.857Z,49.70
2018-05-24T23:56:14.412Z,50.24
2018-05-24T23:58:41.972Z,49.97
